Subpeak Weather - Last Hour


View Last Hour    View Last 24 Hours

Time
Avg. Air Temp
Dew Point
Avg. Rel Humidity
Avg. 2 Min Wind Speed
Max Gust Velocity
MGV Time
MGV Direction
Avg. Spot Wind Velocity
2014-10-26 02:25:00-1° C-7° C67%26 km/h36 km/h2014-10-26 02:20:50SE27 km/h
2014-10-26 02:20:00-1° C-7° C68%28 km/h33 km/h2014-10-26 02:16:20S27 km/h
2014-10-26 02:15:00-1° C-6° C69%25 km/h37 km/h2014-10-26 02:13:20S28 km/h
2014-10-26 02:10:00-1° C-6° C72%27 km/h40 km/h2014-10-26 02:09:30S28 km/h
2014-10-26 02:05:00-1° C-6° C72%23 km/h49 km/h2014-10-26 02:02:50S27 km/h
2014-10-26 02:00:00-1° C-6° C75%27 km/h45 km/h2014-10-26 01:57:20S29 km/h
2014-10-26 01:55:00-1° C-5° C76%33 km/h39 km/h2014-10-26 01:54:50S29 km/h
2014-10-26 01:50:00-1° C-5° C75%22 km/h38 km/h2014-10-26 01:46:50SE26 km/h
2014-10-26 01:45:00-1° C-6° C71%33 km/h41 km/h2014-10-26 01:44:20SE28 km/h
2014-10-26 01:40:00-1° C-6° C70%32 km/h40 km/h2014-10-26 01:39:40SE29 km/h
2014-10-26 01:35:00-1° C-6° C71%25 km/h37 km/h2014-10-26 01:32:10SE27 km/h
2014-10-26 01:30:00-1° C-6° C71%27 km/h40 km/h2014-10-26 01:30:00S25 km/h
2014-10-26 01:25:00-1° C-6° C72%22 km/h33 km/h2014-10-26 01:20:10SE23 km/h
2014-10-26 01:20:00-1° C-6° C69%17 km/h35 km/h2014-10-26 01:20:00SE21 km/h
2014-10-26 01:15:00-1° C-6° C74%28 km/h37 km/h2014-10-26 01:14:00SE27 km/h
2014-10-26 01:10:00-1° C-5° C79%26 km/h40 km/h2014-10-26 01:09:00S22 km/h
2014-10-26 01:05:00-1° C-4° C76%25 km/h42 km/h2014-10-26 01:02:30SE27 km/h
2014-10-26 01:00:00-1° C-5° C79%29 km/h38 km/h2014-10-26 00:59:20S25 km/h
2014-10-26 00:55:00-1° C-4° C79%18 km/h44 km/h2014-10-26 00:51:50SE25 km/h
2014-10-26 00:50:00-1° C-3° C79%22 km/h36 km/h2014-10-26 00:46:50S25 km/h